createdAt,value
2018-10-09T00:00:29.807Z,14.03
2018-10-09T00:03:04.283Z,14.25
2018-10-09T00:05:34.403Z,14.00
2018-10-09T00:08:02.711Z,15.13
2018-10-09T00:10:31.398Z,15.03
2018-10-09T00:13:11.913Z,13.68
2018-10-09T00:15:40.140Z,12.47
2018-10-09T00:18:08.380Z,13.22
2018-10-09T00:20:48.837Z,15.25
2018-10-09T00:23:17.100Z,15.00
2018-10-09T00:25:46.648Z,13.88
2018-10-09T00:28:14.829Z,14.30
2018-10-09T00:30:43.099Z,13.22
2018-10-09T00:33:11.367Z,13.48
2018-10-09T00:35:39.619Z,14.60
2018-10-09T00:38:07.864Z,13.60
2018-10-09T00:40:36.081Z,13.22
2018-10-09T00:43:16.706Z,12.98
2018-10-09T00:45:44.935Z,14.05
2018-10-09T00:48:13.151Z,13.43
2018-10-09T00:50:53.764Z,15.25
2018-10-09T00:53:21.994Z,13.83
2018-10-09T00:55:50.186Z,13.35
2018-10-09T00:58:18.401Z,13.98
2018-10-09T01:00:46.564Z,13.03
2018-10-09T01:03:14.797Z,13.40
2018-10-09T01:05:42.991Z,12.88
2018-10-09T01:08:11.302Z,12.00
2018-10-09T01:10:42.686Z,12.95
2018-10-09T01:13:10.934Z,13.45
2018-10-09T01:15:39.151Z,13.70
2018-10-09T01:18:08.064Z,11.83
2018-10-09T01:20:37.292Z,12.53
2018-10-09T01:23:07.058Z,13.28
2018-10-09T01:25:47.319Z,12.60
2018-10-09T01:28:28.056Z,13.30
2018-10-09T01:31:08.703Z,12.10
2018-10-09T01:33:36.943Z,12.37
2018-10-09T01:36:17.971Z,13.88
2018-10-09T01:38:46.196Z,13.80
2018-10-09T01:41:14.429Z,12.68
2018-10-09T01:43:42.682Z,12.73
2018-10-09T01:46:18.144Z,13.13
2018-10-09T01:48:46.351Z,13.98
2018-10-09T01:51:14.736Z,13.08
2018-10-09T01:53:42.962Z,15.10
2018-10-09T01:56:23.051Z,13.62
2018-10-09T01:58:56.457Z,15.23
2018-10-09T02:01:25.665Z,13.20
2018-10-09T02:03:59.384Z,13.25
2018-10-09T02:06:31.674Z,12.43
2018-10-09T02:09:12.728Z,13.15
2018-10-09T02:11:47.339Z,13.08
2018-10-09T02:14:15.572Z,14.38
2018-10-09T02:16:43.828Z,13.05
2018-10-09T02:19:12.121Z,14.35
2018-10-09T02:21:40.350Z,13.30
2018-10-09T02:24:20.582Z,12.65
2018-10-09T02:27:01.289Z,13.35
2018-10-09T02:29:29.534Z,12.88
2018-10-09T02:31:57.737Z,13.50
2018-10-09T02:34:38.329Z,12.88
2018-10-09T02:37:06.524Z,12.43
2018-10-09T02:39:34.712Z,12.78
2018-10-09T02:42:15.244Z,12.70
2018-10-09T02:44:55.804Z,13.68
2018-10-09T02:47:36.532Z,12.73
2018-10-09T02:50:17.085Z,13.60
2018-10-09T02:52:45.296Z,15.30
2018-10-09T02:55:26.214Z,13.93
2018-10-09T02:58:06.896Z,14.10
2018-10-09T03:00:47.476Z,13.80
2018-10-09T03:03:28.050Z,14.55
2018-10-09T03:05:56.268Z,14.03
2018-10-09T03:08:37.315Z,14.33
2018-10-09T03:11:17.983Z,14.98
2018-10-09T03:13:58.570Z,13.78
2018-10-09T03:16:39.317Z,15.80
2018-10-09T03:19:07.572Z,14.68
2018-10-09T03:21:48.368Z,14.80
2018-10-09T03:24:28.934Z,16.10
2018-10-09T03:26:57.197Z,15.32
2018-10-09T03:29:38.126Z,13.15
2018-10-09T03:32:06.516Z,13.62
2018-10-09T03:34:47.482Z,14.28
2018-10-09T03:37:28.026Z,14.98
2018-10-09T03:40:08.597Z,15.23
2018-10-09T03:42:49.260Z,15.25
2018-10-09T03:45:29.809Z,15.10
2018-10-09T03:47:59.469Z,17.05
2018-10-09T03:50:40.065Z,15.10
2018-10-09T03:53:08.277Z,14.83
2018-10-09T03:55:48.457Z,14.58
2018-10-09T03:58:29.029Z,15.68
2018-10-09T04:01:04.752Z,15.40
2018-10-09T04:03:45.361Z,17.27
2018-10-09T04:06:14.944Z,16.20
2018-10-09T04:08:55.643Z,16.67
2018-10-09T04:11:23.810Z,16.25
2018-10-09T04:14:04.757Z,18.80
2018-10-09T04:16:45.299Z,15.15
2018-10-09T04:19:25.820Z,14.63
2018-10-09T04:21:53.983Z,14.90
2018-10-09T04:24:25.987Z,15.32
2018-10-09T04:26:54.324Z,16.17
2018-10-09T04:29:34.809Z,14.10
2018-10-09T04:32:15.329Z,15.38
2018-10-09T04:34:55.888Z,16.35
2018-10-09T04:37:36.473Z,14.98
2018-10-09T04:40:16.927Z,16.27
2018-10-09T04:42:57.444Z,16.10
2018-10-09T04:45:28.492Z,15.25
2018-10-09T04:48:08.845Z,16.00
2018-10-09T04:50:37.069Z,16.15
2018-10-09T04:53:18.047Z,14.38
2018-10-09T04:55:58.532Z,14.87
2018-10-09T04:58:39.092Z,20.68
2018-10-09T05:01:08.192Z,46.23
2018-10-09T05:03:48.406Z,17.37
2018-10-09T05:06:28.917Z,16.62
2018-10-09T05:09:10.761Z,16.00
2018-10-09T05:11:38.999Z,17.77
2018-10-09T05:14:07.363Z,19.15
2018-10-09T05:16:47.620Z,17.02
2018-10-09T05:19:28.081Z,17.12
2018-10-09T05:22:08.567Z,15.25
2018-10-09T05:24:49.108Z,16.55
2018-10-09T05:27:17.351Z,16.77
2018-10-09T05:29:48.162Z,17.90
2018-10-09T05:32:16.845Z,16.05
2018-10-09T05:34:46.000Z,15.75
2018-10-09T05:37:26.671Z,15.75
2018-10-09T05:39:54.934Z,16.90
2018-10-09T05:42:36.024Z,29.55
2018-10-09T05:45:04.368Z,18.52
2018-10-09T05:47:45.254Z,21.35
2018-10-09T05:50:25.783Z,22.98
2018-10-09T05:52:54.222Z,24.23
2018-10-09T05:55:35.912Z,22.95
2018-10-09T05:58:16.796Z,20.65
2018-10-09T06:00:44.986Z,22.67
2018-10-09T06:03:13.380Z,21.70
2018-10-09T06:05:41.577Z,23.35
2018-10-09T06:08:22.593Z,22.02
2018-10-09T06:10:51.695Z,21.60
2018-10-09T06:13:32.932Z,20.80
2018-10-09T06:16:13.276Z,23.55
2018-10-09T06:18:42.765Z,24.52
2018-10-09T06:21:23.747Z,22.60
2018-10-09T06:23:51.972Z,24.75
2018-10-09T06:26:32.756Z,26.25
2018-10-09T06:29:13.607Z,25.65
2018-10-09T06:31:54.161Z,27.17
2018-10-09T06:34:23.965Z,28.12
2018-10-09T06:36:59.677Z,26.68
2018-10-09T06:39:28.036Z,28.00
2018-10-09T06:41:56.265Z,29.35
2018-10-09T06:44:37.120Z,32.28
2018-10-09T06:47:06.478Z,31.07
2018-10-09T06:49:39.060Z,31.73
2018-10-09T06:52:19.263Z,30.60
2018-10-09T06:55:00.067Z,28.95
2018-10-09T06:57:40.705Z,35.35
2018-10-09T07:00:21.434Z,32.67
2018-10-09T07:02:50.852Z,29.90
2018-10-09T07:05:19.177Z,34.92
2018-10-09T07:07:59.316Z,34.60
2018-10-09T07:10:40.052Z,33.73
2018-10-09T07:13:08.451Z,34.63
2018-10-09T07:15:49.264Z,32.88
2018-10-09T07:18:29.820Z,33.80
2018-10-09T07:22:27.314Z,34.35
2018-10-09T07:25:07.960Z,35.52
2018-10-09T07:27:36.914Z,36.50
2018-10-09T07:30:17.251Z,34.67
2018-10-09T07:32:57.846Z,35.20
2018-10-09T07:35:38.555Z,35.52
2018-10-09T07:38:06.829Z,33.98
2018-10-09T07:40:47.734Z,34.58
2018-10-09T07:43:17.364Z,33.15
2018-10-09T07:45:57.926Z,33.28
2018-10-09T07:48:38.569Z,33.65
2018-10-09T07:51:19.331Z,33.48
2018-10-09T07:53:59.720Z,33.95
2018-10-09T07:56:28.011Z,33.23
2018-10-09T07:58:56.337Z,36.15
2018-10-09T08:01:36.724Z,33.25
2018-10-09T08:04:08.925Z,42.08
2018-10-09T08:06:44.057Z,35.05
2018-10-09T08:09:12.718Z,34.13
2018-10-09T08:11:41.372Z,35.43
2018-10-09T08:14:09.959Z,36.73
2018-10-09T08:16:38.258Z,34.27
2018-10-09T08:19:06.788Z,33.65
2018-10-09T08:21:35.485Z,32.35
2018-10-09T08:24:09.978Z,38.33
2018-10-09T08:26:39.215Z,34.15
2018-10-09T08:29:08.906Z,33.23
2018-10-09T08:31:37.569Z,34.65
2018-10-09T08:34:05.947Z,36.83
2018-10-09T08:36:34.168Z,36.25
2018-10-09T08:39:02.549Z,36.28
2018-10-09T08:41:31.190Z,35.95
2018-10-09T08:44:00.323Z,33.67
2018-10-09T08:46:30.026Z,37.98
2018-10-09T08:48:59.191Z,70.42
2018-10-09T08:51:27.406Z,37.83
2018-10-09T08:53:56.173Z,34.40
2018-10-09T08:56:27.198Z,33.80
2018-10-09T08:58:56.491Z,34.88
2018-10-09T09:01:29.888Z,35.52
2018-10-09T09:04:00.568Z,34.88
2018-10-09T09:06:29.165Z,33.02
2018-10-09T09:08:58.396Z,34.15
2018-10-09T09:11:39.070Z,36.88
2018-10-09T09:14:07.496Z,37.85
2018-10-09T09:16:48.023Z,36.40
2018-10-09T09:19:28.857Z,39.75
2018-10-09T09:21:57.076Z,36.73
2018-10-09T09:24:38.119Z,37.53
2018-10-09T09:27:18.804Z,35.68
2018-10-09T09:30:00.356Z,37.95
2018-10-09T09:32:28.591Z,38.33
2018-10-09T09:35:09.683Z,34.85
2018-10-09T09:37:50.377Z,36.00
2018-10-09T09:40:18.624Z,36.00
2018-10-09T09:42:59.616Z,35.17
2018-10-09T09:45:27.956Z,37.03
2018-10-09T09:47:56.814Z,32.00
2018-10-09T09:50:25.048Z,34.20
2018-10-09T09:53:05.489Z,37.20
2018-10-09T09:55:33.786Z,33.53
2018-10-09T09:58:14.974Z,35.43
2018-10-09T10:00:48.647Z,54.55
2018-10-09T10:03:17.036Z,31.05
2018-10-09T10:05:45.470Z,32.15
2018-10-09T10:08:26.559Z,29.90
2018-10-09T10:10:54.774Z,32.63
2018-10-09T10:13:23.026Z,29.10
2018-10-09T10:16:03.556Z,29.72
2018-10-09T10:18:31.775Z,27.75
2018-10-09T10:21:00.555Z,27.07
2018-10-09T10:23:28.850Z,25.70
2018-10-09T10:26:02.489Z,24.47
2018-10-09T10:28:30.701Z,23.92
2018-10-09T10:30:58.895Z,25.62
2018-10-09T10:33:28.179Z,27.07
2018-10-09T10:36:09.278Z,24.25
2018-10-09T10:38:37.532Z,24.50
2018-10-09T10:41:18.570Z,23.15
2018-10-09T10:43:59.093Z,24.23
2018-10-09T10:46:33.830Z,22.15
2018-10-09T10:49:15.183Z,21.20
2018-10-09T10:51:44.299Z,20.95
2018-10-09T10:54:24.641Z,20.50
2018-10-09T10:56:52.898Z,21.45
2018-10-09T10:59:32.995Z,19.35
2018-10-09T11:02:01.205Z,18.98
2018-10-09T11:04:29.521Z,17.90
2018-10-09T11:07:09.910Z,19.67
2018-10-09T11:09:50.393Z,19.73
2018-10-09T11:12:31.073Z,15.83
2018-10-09T11:14:59.323Z,13.43
2018-10-09T11:17:40.307Z,14.30
2018-10-09T11:20:20.909Z,15.13
2018-10-09T11:22:49.438Z,14.00
2018-10-09T11:25:30.270Z,16.40
2018-10-09T11:28:10.751Z,15.95
2018-10-09T11:30:43.976Z,14.10
2018-10-09T11:33:12.210Z,18.20
2018-10-09T11:35:52.840Z,14.47
2018-10-09T11:38:21.155Z,15.68
2018-10-09T11:41:02.168Z,15.38
2018-10-09T11:43:30.410Z,15.25
2018-10-09T11:46:11.465Z,12.98
2018-10-09T11:48:51.987Z,13.25
2018-10-09T11:51:20.224Z,13.90
2018-10-09T11:53:49.913Z,12.63
2018-10-09T11:56:18.288Z,12.15
2018-10-09T11:58:46.601Z,11.95
2018-10-09T12:01:14.856Z,12.07
2018-10-09T12:03:49.921Z,12.53
2018-10-09T12:06:30.974Z,12.93
2018-10-09T12:09:02.712Z,12.35
2018-10-09T12:11:43.272Z,13.90
2018-10-09T12:14:23.895Z,14.68
2018-10-09T12:16:52.194Z,14.40
2018-10-09T12:19:20.702Z,11.35
2018-10-09T12:21:48.999Z,12.05
2018-10-09T12:24:18.130Z,11.85
2018-10-09T12:26:47.873Z,10.68
2018-10-09T12:29:17.501Z,11.55
2018-10-09T12:31:45.778Z,12.00
2018-10-09T12:34:14.841Z,12.28
2018-10-09T12:36:44.593Z,12.37
2018-10-09T12:39:13.747Z,11.10
2018-10-09T12:41:50.000Z,12.20
2018-10-09T12:44:22.715Z,12.63
2018-10-09T12:46:51.569Z,13.15
2018-10-09T12:49:19.837Z,12.35
2018-10-09T12:51:48.114Z,12.10
2018-10-09T12:54:16.396Z,12.40
2018-10-09T12:58:13.868Z,14.87
2018-10-09T13:00:54.883Z,11.70
2018-10-09T13:03:23.136Z,12.60
2018-10-09T13:06:04.317Z,11.50
2018-10-09T13:08:44.828Z,11.65
2018-10-09T13:11:26.946Z,10.68
2018-10-09T13:13:55.150Z,11.70
2018-10-09T13:16:35.660Z,12.58
2018-10-09T13:19:03.859Z,11.97
2018-10-09T13:21:44.262Z,12.40
2018-10-09T13:24:12.267Z,12.53
2018-10-09T13:26:53.252Z,11.28
2018-10-09T13:29:33.864Z,11.08
2018-10-09T13:32:02.525Z,12.15
2018-10-09T13:34:30.862Z,31.97
2018-10-09T13:37:12.049Z,13.62
2018-10-09T13:39:52.497Z,11.80
2018-10-09T13:42:33.090Z,12.98
2018-10-09T13:45:13.724Z,11.65
2018-10-09T13:47:42.185Z,12.55
2018-10-09T13:50:23.514Z,11.63
2018-10-09T13:53:04.634Z,10.32
2018-10-09T13:55:45.209Z,11.55
2018-10-09T13:58:13.562Z,13.22
2018-10-09T14:00:41.800Z,11.97
2018-10-09T14:03:10.103Z,14.60
2018-10-09T14:05:38.452Z,11.95
2018-10-09T14:08:19.589Z,12.60
2018-10-09T14:10:59.894Z,13.25
2018-10-09T14:13:40.440Z,13.30
2018-10-09T14:16:21.154Z,13.15
2018-10-09T14:19:01.545Z,12.68
2018-10-09T14:21:42.329Z,12.30
2018-10-09T14:24:22.753Z,13.65
2018-10-09T14:26:51.127Z,13.60
2018-10-09T14:29:31.881Z,14.05
2018-10-09T14:32:00.998Z,13.88
2018-10-09T14:34:41.327Z,15.55
2018-10-09T14:37:21.947Z,16.73
2018-10-09T14:40:02.481Z,13.22
2018-10-09T14:42:43.201Z,12.37
2018-10-09T14:45:11.444Z,10.90
2018-10-09T14:47:51.582Z,12.60
2018-10-09T14:50:32.084Z,13.58
2018-10-09T14:53:13.488Z,13.60
2018-10-09T14:55:54.233Z,13.80
2018-10-09T14:58:22.542Z,15.48
2018-10-09T15:01:03.519Z,14.25
2018-10-09T15:03:32.050Z,14.33
2018-10-09T15:06:12.768Z,16.00
2018-10-09T15:08:53.877Z,15.08
2018-10-09T15:11:22.201Z,15.28
2018-10-09T15:13:50.465Z,15.25
2018-10-09T15:16:32.125Z,15.72
2018-10-09T15:19:13.468Z,16.90
2018-10-09T15:21:41.926Z,17.23
2018-10-09T15:24:10.753Z,16.40
2018-10-09T15:26:50.995Z,17.40
2018-10-09T15:29:31.581Z,19.42
2018-10-09T15:32:14.119Z,17.42
2018-10-09T15:34:54.613Z,17.80
2018-10-09T15:37:35.100Z,17.27
2018-10-09T15:40:04.456Z,16.45
2018-10-09T15:42:45.392Z,16.97
2018-10-09T15:45:19.135Z,16.00
2018-10-09T15:47:59.926Z,15.80
2018-10-09T15:50:40.478Z,16.93
2018-10-09T15:53:21.363Z,16.62
2018-10-09T15:56:01.712Z,17.70
2018-10-09T15:58:42.364Z,16.20
2018-10-09T16:01:11.211Z,63.10
2018-10-09T16:03:40.971Z,25.20
2018-10-09T16:06:09.196Z,21.55
2018-10-09T16:08:53.288Z,17.60
2018-10-09T16:11:33.540Z,15.95
2018-10-09T16:14:14.028Z,16.10
2018-10-09T16:16:54.668Z,17.35
2018-10-09T16:19:36.182Z,15.20
2018-10-09T16:22:05.093Z,18.00
2018-10-09T16:24:45.748Z,18.50
2018-10-09T16:27:26.097Z,18.65
2018-10-09T16:30:06.667Z,18.12
2018-10-09T16:32:36.011Z,18.12
2018-10-09T16:35:06.297Z,16.73
2018-10-09T16:37:46.653Z,19.55
2018-10-09T16:40:27.295Z,16.57
2018-10-09T16:42:55.588Z,17.67
2018-10-09T16:45:23.833Z,21.48
2018-10-09T16:47:52.873Z,18.25
2018-10-09T16:50:22.231Z,15.78
2018-10-09T16:52:52.812Z,19.90
2018-10-09T16:55:24.815Z,19.37
2018-10-09T16:58:00.207Z,19.92
2018-10-09T17:00:29.072Z,21.12
2018-10-09T17:02:58.567Z,18.37
2018-10-09T17:05:26.961Z,19.35
2018-10-09T17:08:02.057Z,18.85
2018-10-09T17:10:30.400Z,21.02
2018-10-09T17:13:12.071Z,20.35
2018-10-09T17:15:42.955Z,21.27
2018-10-09T17:18:23.822Z,19.48
2018-10-09T17:20:52.087Z,21.37
2018-10-09T17:23:33.065Z,19.77
2018-10-09T17:26:02.276Z,23.22
2018-10-09T17:28:32.338Z,21.02
2018-10-09T17:31:13.085Z,23.20
2018-10-09T17:33:42.268Z,22.75
2018-10-09T17:36:22.441Z,21.30
2018-10-09T17:38:51.033Z,22.87
2018-10-09T17:41:19.601Z,21.07
2018-10-09T17:43:49.090Z,20.55
2018-10-09T17:46:17.485Z,20.52
2018-10-09T17:48:58.008Z,21.10
2018-10-09T17:51:26.255Z,21.42
2018-10-09T17:54:07.126Z,23.12
2018-10-09T17:56:47.714Z,24.55
2018-10-09T17:59:32.726Z,23.45
2018-10-09T18:02:14.474Z,23.50
2018-10-09T18:04:55.292Z,22.65
2018-10-09T18:07:37.653Z,26.25
2018-10-09T18:10:18.464Z,25.80
2018-10-09T18:12:59.139Z,26.35
2018-10-09T18:15:39.792Z,28.30
2018-10-09T18:18:08.077Z,29.72
2018-10-09T18:20:49.272Z,27.58
2018-10-09T18:23:17.594Z,24.43
2018-10-09T18:25:58.829Z,25.82
2018-10-09T18:28:29.484Z,25.37
2018-10-09T18:30:59.753Z,23.27
2018-10-09T18:33:31.708Z,23.98
2018-10-09T18:36:12.978Z,25.12
2018-10-09T18:38:50.863Z,23.45
2018-10-09T18:41:32.024Z,25.12
2018-10-09T18:44:12.906Z,25.08
2018-10-09T18:46:53.320Z,24.72
2018-10-09T18:49:21.735Z,28.98
2018-10-09T18:52:02.644Z,27.82
2018-10-09T18:54:30.995Z,25.23
2018-10-09T18:57:11.850Z,27.45
2018-10-09T18:59:52.395Z,25.62
2018-10-09T19:02:20.700Z,25.80
2018-10-09T19:04:49.239Z,24.00
2018-10-09T19:07:17.449Z,24.30
2018-10-09T19:09:57.917Z,23.75
2018-10-09T19:12:38.558Z,25.32
2018-10-09T19:15:19.139Z,24.45
2018-10-09T19:17:59.794Z,24.02
2018-10-09T19:20:40.344Z,25.97
2018-10-09T19:23:21.000Z,26.15
2018-10-09T19:26:01.551Z,30.50
2018-10-09T19:28:42.221Z,27.60
2018-10-09T19:31:22.766Z,29.37
2018-10-09T19:33:51.114Z,30.00
2018-10-09T19:36:19.373Z,32.42
2018-10-09T19:38:59.805Z,29.87
2018-10-09T19:41:40.353Z,29.27
2018-10-09T19:44:22.463Z,29.05
2018-10-09T19:47:03.571Z,26.85
2018-10-09T19:49:44.197Z,29.45
2018-10-09T19:52:12.610Z,28.60
2018-10-09T19:54:53.654Z,25.57
2018-10-09T19:57:21.988Z,28.65
2018-10-09T20:00:04.592Z,31.20
2018-10-09T20:02:33.651Z,29.45
2018-10-09T20:05:14.341Z,26.07
2018-10-09T20:07:54.987Z,27.87
2018-10-09T20:10:35.624Z,29.00
2018-10-09T20:13:17.903Z,29.20
2018-10-09T20:15:58.889Z,28.70
2018-10-09T20:18:39.490Z,28.77
2018-10-09T20:21:20.197Z,26.93
2018-10-09T20:24:01.084Z,29.87
2018-10-09T20:26:41.683Z,27.27
2018-10-09T20:29:22.271Z,28.52
2018-10-09T20:32:02.840Z,27.80
2018-10-09T20:34:31.252Z,27.37
2018-10-09T20:37:12.046Z,28.45
2018-10-09T20:39:40.330Z,29.35
2018-10-09T20:42:21.282Z,32.75
2018-10-09T20:45:01.867Z,30.35
2018-10-09T20:47:43.919Z,31.50
2018-10-09T20:50:25.045Z,28.95
2018-10-09T20:53:05.632Z,30.65
2018-10-09T20:55:46.335Z,32.48
2018-10-09T20:58:26.737Z,30.77
2018-10-09T21:00:55.174Z,29.48
2018-10-09T21:03:35.978Z,28.47
2018-10-09T21:06:16.873Z,27.85
2018-10-09T21:08:45.180Z,30.62
2018-10-09T21:11:25.997Z,33.02
2018-10-09T21:13:54.453Z,35.25
2018-10-09T21:16:35.221Z,77.22
2018-10-09T21:19:03.552Z,32.67
2018-10-09T21:21:44.662Z,31.68
2018-10-09T21:24:25.366Z,31.27
2018-10-09T21:26:57.060Z,32.98
2018-10-09T21:29:31.354Z,34.23
2018-10-09T21:32:01.456Z,30.57
2018-10-09T21:34:29.712Z,32.65
2018-10-09T21:37:10.781Z,30.80
2018-10-09T21:39:51.270Z,33.48
2018-10-09T21:42:26.914Z,32.25
2018-10-09T21:44:55.241Z,31.33
2018-10-09T21:47:23.476Z,32.33
2018-10-09T21:49:51.932Z,33.65
2018-10-09T21:52:20.264Z,34.25
2018-10-09T21:54:49.507Z,32.13
2018-10-09T21:57:30.077Z,31.90
2018-10-09T22:00:10.934Z,32.85
2018-10-09T22:02:40.716Z,32.58
2018-10-09T22:05:10.423Z,33.20
2018-10-09T22:07:42.374Z,34.33
2018-10-09T22:10:10.708Z,32.40
2018-10-09T22:12:38.993Z,32.30
2018-10-09T22:15:07.543Z,31.87
2018-10-09T22:17:37.422Z,31.55
2018-10-09T22:20:06.612Z,34.00
2018-10-09T22:22:35.075Z,33.05
2018-10-09T22:25:03.924Z,32.85
2018-10-09T22:27:32.206Z,34.03
2018-10-09T22:30:13.316Z,33.58
2018-10-09T22:32:42.023Z,33.63
2018-10-09T22:35:10.319Z,34.88
2018-10-09T22:37:41.654Z,33.13
2018-10-09T22:40:22.272Z,35.45
2018-10-09T22:43:02.954Z,34.25
2018-10-09T22:45:31.223Z,33.73
2018-10-09T22:47:59.466Z,33.08
2018-10-09T22:50:27.794Z,33.98
2018-10-09T22:52:56.099Z,32.23
2018-10-09T22:55:24.703Z,31.87
2018-10-09T22:58:05.310Z,32.33
2018-10-09T23:00:34.047Z,33.23
2018-10-09T23:03:04.167Z,32.70
2018-10-09T23:05:33.384Z,32.40
2018-10-09T23:08:07.389Z,34.83
2018-10-09T23:10:35.639Z,32.73
2018-10-09T23:13:06.271Z,32.75
2018-10-09T23:15:46.856Z,35.10
2018-10-09T23:18:15.066Z,31.85
2018-10-09T23:20:43.578Z,33.00
2018-10-09T23:23:12.860Z,32.98
2018-10-09T23:25:53.653Z,33.92
2018-10-09T23:28:34.178Z,33.73
2018-10-09T23:31:14.854Z,30.80
2018-10-09T23:33:43.054Z,31.52
2018-10-09T23:36:17.773Z,34.33
2018-10-09T23:38:52.045Z,31.40
2018-10-09T23:41:32.526Z,31.97
2018-10-09T23:44:13.202Z,29.35
2018-10-09T23:46:53.675Z,31.80
2018-10-09T23:49:34.336Z,34.30
2018-10-09T23:52:02.554Z,32.50
2018-10-09T23:54:30.749Z,31.15
2018-10-09T23:56:59.000Z,32.05
2018-10-09T23:59:39.105Z,35.85
